^^
Datos históricos de la estación: Murcia-Puente Tocinos
Diario Informe para Enero 21, 2021 Unidades:  Métrico    Ingés   Ambas
Diario Semanal Mensual Anual
  Máxima: Mínima: Promedio:
Temperatura: 20.4 °C 6.2 °C 13.1 °C
Punto de rocio: 8.7 °C 4.7 °C 6.5 °C
Humedad: 93% 37% 68%
Velocidad viento: 22.5km/h 0km/h 7.1km/h
Racha viento: 46.8km/h - -
Viento- - SSO
Presión: 1017.0 hPa 1012.5 hPa -
Precipitación: 0.0 mm    
 
 
Tabla de datos para Enero 21, 2021
Hora Temperatura Punto de rocio Presión Viento Velocidad viento Racha viento Humedad Intensidad lluvia(por hora) Nubes
00:04 8.5 °C 7.3 °C 1012.5 hPa Sur 3.9 km/h 6.4 km/h 92.4% 0.0 mm
00:09 8.5 °C 7.4 °C 1012.6 hPa Sur 2.9 km/h 4.8 km/h 92.9% 0.0 mm
00:14 8.5 °C 7.3 °C 1012.6 hPa Sur 2.9 km/h 3.9 km/h 92% 0.0 mm
00:19 8.5 °C 7.3 °C 1012.6 hPa Sur 0.2 km/h 3.9 km/h 92% 0.0 mm
00:24 8.5 °C 7.3 °C 1012.6 hPa Calm   5.8 km/h 92% 0.0 mm
00:29 8.4 °C 7.2 °C 1012.6 hPa ONO 2.8 km/h 7.4 km/h 92% 0.0 mm
00:34 8.4 °C 7.2 °C 1012.6 hPa ONO 2.9 km/h 8 km/h 92% 0.0 mm
00:39 8.3 °C 7.1 °C 1012.7 hPa ONO 3.2 km/h 7.6 km/h 92% 0.0 mm
00:44 8.2 °C 7 °C 1012.7 hPa Oeste 3.2 km/h 8.4 km/h 92% 0.0 mm
00:49 8.2 °C 7 °C 1012.7 hPa Oeste 4.5 km/h 8 km/h 92.2% 0.0 mm
00:54 8.2 °C 7.1 °C 1012.7 hPa Oeste 4.7 km/h 9.3 km/h 93% 0.0 mm
00:59 8.2 °C 7.1 °C 1012.6 hPa SO 4.7 km/h 11.1 km/h 93% 0.0 mm
01:04 8.2 °C 7.1 °C 1012.6 hPa Sur 4.7 km/h 11.3 km/h 93% 0.0 mm
01:09 8.3 °C 7.2 °C 1012.6 hPa SSE 6.3 km/h 11.1 km/h 93% 0.0 mm
01:14 8.3 °C 7.2 °C 1012.5 hPa Sur 6.5 km/h 11.3 km/h 93% 0.0 mm
01:19 8.4 °C 7.3 °C 1012.5 hPa Sur 7.4 km/h 9.7 km/h 93% 0.0 mm
01:24 8.4 °C 7.3 °C 1012.6 hPa SE 7.6 km/h 9.7 km/h 93% 0.0 mm
01:29 8.4 °C 7.3 °C 1012.6 hPa North 4.9 km/h 8 km/h 93% 0.0 mm
01:34 8.3 °C 7.1 °C 1012.6 hPa NE 4.7 km/h 8.4 km/h 92.4% 0.0 mm
01:39 8.2 °C 7 °C 1013.0 hPa NE 3.9 km/h 8 km/h 92% 0.0 mm
01:44 8.2 °C 7.1 °C 1013.0 hPa NE 3.9 km/h 6.4 km/h 92.6% 0.0 mm
01:49 8.2 °C 7.1 °C 1013.0 hPa NE 0.3 km/h 6.4 km/h 93% 0.0 mm
01:54 8.2 °C 7.1 °C 1013.0 hPa Calm   8.4 km/h 93% 0.0 mm
01:59 8.2 °C 7.1 °C 1013.0 hPa SSE 4.4 km/h 10 km/h 93% 0.0 mm
02:04 8.2 °C 6.9 °C 1013.0 hPa Sur 4.6 km/h 10 km/h 92% 0.0 mm
02:09 8.1 °C 7 °C 1013.0 hPa Sur 7.2 km/h 11.1 km/h 92.9% 0.0 mm
02:14 8 °C 6.8 °C 1013.0 hPa SSE 7.6 km/h 13 km/h 92.3% 0.0 mm
02:19 7.9 °C 6.7 °C 1013.0 hPa SSE 7.6 km/h 15.6 km/h 92.1% 0.0 mm
02:24 7.8 °C 6.8 °C 1013.1 hPa SSE 7.6 km/h 16.7 km/h 93% 0.0 mm
02:29 7.9 °C 6.8 °C 1013.1 hPa SSE 10.6 km/h 16.7 km/h 93% 0.0 mm
02:34 7.9 °C 6.8 °C 1013.1 hPa SSE 11.1 km/h 14.8 km/h 93% 0.0 mm
02:39 7.9 °C 6.9 °C 1013.3 hPa Sur 10.1 km/h 15.6 km/h 93% 0.0 mm
02:44 8.1 °C 7 °C 1013.3 hPa Sur 10 km/h 16.7 km/h 93% 0.0 mm
02:49 8.2 °C 7.1 °C 1013.3 hPa SSO 10 km/h 16.1 km/h 93% 0.0 mm
02:54 8.2 °C 7.1 °C 1013.4 hPa Sur 10 km/h 11.9 km/h 92.4% 0.0 mm
02:59 8.3 °C 7.1 °C 1013.4 hPa SSE 7.7 km/h 11.3 km/h 92% 0.0 mm
03:04 8.3 °C 7.1 °C 1013.4 hPa SSE 7.6 km/h 9.7 km/h 92% 0.0 mm
03:09 8.4 °C 7.1 °C 1013.6 hPa SSE 5.9 km/h 9.7 km/h 91.8% 0.0 mm
03:14 8.4 °C 7 °C 1013.6 hPa SE 5.8 km/h 10 km/h 91% 0.0 mm
03:19 8.4 °C 7 °C 1013.6 hPa SE 6.8 km/h 9.7 km/h 91% 0.0 mm
03:24 8.3 °C 6.9 °C 1013.6 hPa SSE 6.9 km/h 11.1 km/h 90.5% 0.0 mm
03:29 8.3 °C 6.8 °C 1013.5 hPa SSO 6.5 km/h 11.9 km/h 90% 0.0 mm
03:34 8.2 °C 6.7 °C 1013.5 hPa SO 6.5 km/h 13 km/h 90% 0.0 mm
03:39 8.2 °C 6.7 °C 1013.5 hPa SO 7.5 km/h 12.9 km/h 90% 0.0 mm
03:44 8.3 °C 6.6 °C 1013.5 hPa OSO 7.6 km/h 13 km/h 89.5% 0.0 mm
03:49 8.3 °C 6.6 °C 1013.5 hPa OSO 8.3 km/h 12.9 km/h 89% 0.0 mm
03:54 8.3 °C 6.5 °C 1013.6 hPa Oeste 8.4 km/h 9.7 km/h 88.1% 0.0 mm
03:59 8.3 °C 6.4 °C 1013.6 hPa Oeste 6.6 km/h 9.7 km/h 88% 0.0 mm
04:04 8.2 °C 6.3 °C 1013.6 hPa Oeste 6.5 km/h 10 km/h 88% 0.0 mm
04:09 8.1 °C 6.2 °C 1013.6 hPa Oeste 5.9 km/h 9.7 km/h 88% 0.0 mm
04:14 7.9 °C 6.1 °C 1013.5 hPa OSO 5.8 km/h 9.7 km/h 88% 0.0 mm
04:19 7.8 °C 6 °C 1013.5 hPa SSO 4.1 km/h 9.5 km/h 88% 0.0 mm
04:24 7.8 °C 6.1 °C 1013.8 hPa Sur 3.9 km/h 9.7 km/h 88.9% 0.0 mm
04:29 7.8 °C 6.1 °C 1013.8 hPa SSE 4.9 km/h 8 km/h 89% 0.0 mm
04:34 7.7 °C 6 °C 1013.8 hPa SSE 5 km/h 6.9 km/h 89% 0.0 mm
04:39 7.7 °C 5.9 °C 1014.0 hPa SE 3.5 km/h 10 km/h 88.7% 0.0 mm
04:44 7.5 °C 5.8 °C 1014.0 hPa SSE 3.2 km/h 9.7 km/h 89% 0.0 mm
04:49 7.3 °C 5.7 °C 1014.0 hPa SE 3.2 km/h 8.4 km/h 89% 0.0 mm
04:54 7.2 °C 5.5 °C 1014.2 hPa Este 3.2 km/h 8.7 km/h 89% 0.0 mm
04:59 6.9 °C 5.3 °C 1014.2 hPa ESE 4.5 km/h 11.1 km/h 89.2% 0.0 mm
05:04 6.8 °C 5.2 °C 1014.2 hPa ESE 4.7 km/h 11.3 km/h 90% 0.0 mm
05:09 6.7 °C 5.3 °C 1014.3 hPa ESE 6.7 km/h 9.7 km/h 90.7% 0.0 mm
05:14 6.7 °C 5.4 °C 1014.3 hPa ESE 6.9 km/h 8 km/h 91.1% 0.0 mm
05:19 6.8 °C 5.6 °C 1014.3 hPa ESE 4.8 km/h 8 km/h 92% 0.0 mm
05:24 6.9 °C 5.7 °C 1014.4 hPa ESE 4.7 km/h 8 km/h 92% 0.0 mm
05:29 7.1 °C 5.9 °C 1014.4 hPa SE 3.9 km/h 8 km/h 92% 0.0 mm
05:34 7.1 °C 5.9 °C 1014.4 hPa SE 3.9 km/h 8 km/h 92% 0.0 mm
05:39 7.2 °C 6 °C 1014.4 hPa SE 4.6 km/h 9.3 km/h 92% 0.0 mm
05:44 7.3 °C 6.1 °C 1014.4 hPa SE 4.7 km/h 9.7 km/h 92% 0.0 mm
05:49 7.3 °C 6.1 °C 1014.4 hPa ESE 4.9 km/h 9.3 km/h 92% 0.0 mm
05:54 7.3 °C 6.1 °C 1014.6 hPa ESE 5 km/h 9.7 km/h 92% 0.0 mm
05:59 7.2 °C 6 °C 1014.6 hPa SE 5 km/h 8 km/h 92% 0.0 mm
06:04 7.1 °C 5.8 °C 1014.6 hPa SO 5 km/h 8 km/h 91.3% 0.0 mm
06:09 7.1 °C 5.7 °C 1014.8 hPa SSO 4.7 km/h 8 km/h 91.3% 0.0 mm
06:14 6.9 °C 5.7 °C 1014.8 hPa Sur 4.7 km/h 9.5 km/h 92% 0.0 mm
06:19 7.1 °C 5.9 °C 1014.8 hPa Sur 4.9 km/h 9.7 km/h 92% 0.0 mm
06:24 7.2 °C 6 °C 1014.9 hPa Sur 5 km/h 9.7 km/h 92% 0.0 mm
06:29 7.3 °C 6.1 °C 1014.9 hPa SSE 5.7 km/h 8.4 km/h 92% 0.0 mm
06:34 7.3 °C 6.1 °C 1014.9 hPa SSE 5.8 km/h 9.5 km/h 92% 0.0 mm
06:39 7.3 °C 6.1 °C 1014.9 hPa SSE 6.3 km/h 11.1 km/h 91.8% 0.0 mm
06:44 7.3 °C 5.9 °C 1014.7 hPa Sur 6.5 km/h 11.3 km/h 91% 0.0 mm
06:49 7.3 °C 5.9 °C 1014.7 hPa Sur 6.9 km/h 11.3 km/h 91% 0.0 mm
06:54 7.2 °C 5.7 °C 1015.1 hPa SSO 6.9 km/h 8 km/h 90.5% 0.0 mm
06:59 7.1 °C 5.5 °C 1015.1 hPa SO 3.4 km/h 4.7 km/h 90% 0.0 mm
07:04 6.9 °C 5.4 °C 1015.1 hPa SO 2.9 km/h 5.6 km/h 90% 0.0 mm
07:09 6.8 °C 5.3 °C 1015.3 hPa SO 2.3 km/h 5 km/h 90% 0.0 mm
07:14 6.6 °C 5.1 °C 1015.3 hPa SO 2.2 km/h 7.4 km/h 90% 0.0 mm
07:19 6.4 °C 4.9 °C 1015.3 hPa SO 3.2 km/h 8 km/h 90% 0.0 mm
07:24 6.3 °C 4.8 °C 1015.3 hPa SO 3.2 km/h 6.4 km/h 90% 0.0 mm
07:29 6.3 °C 4.9 °C 1015.3 hPa OSO 2.4 km/h 5.8 km/h 90.9% 0.0 mm
07:34 6.2 °C 4.8 °C 1015.3 hPa Oeste 2.2 km/h 7.4 km/h 91% 0.0 mm
07:39 6.2 °C 4.9 °C 1015.6 hPa Oeste 3.1 km/h 7.4 km/h 91.3% 0.0 mm
07:44 6.3 °C 5 °C 1015.6 hPa OSO 3.2 km/h 8 km/h 91.9% 0.0 mm
07:49 6.2 °C 5 °C 1015.6 hPa OSO 4.5 km/h 9.3 km/h 91.9% 0.0 mm
07:54 6.2 °C 4.9 °C 1015.6 hPa SO 4.7 km/h 9.7 km/h 92% 0.0 mm
07:59 6.2 °C 4.9 °C 1015.6 hPa SSO 6.3 km/h 9.7 km/h 92% 0.0 mm
08:04 6.2 °C 5 °C 1015.6 hPa SSO 6.5 km/h 8.4 km/h 92% 0.0 mm
08:09 6.3 °C 5.1 °C 1015.7 hPa Sur 4.9 km/h 8 km/h 92% 0.0 mm
08:14 6.3 °C 5.1 °C 1015.7 hPa Sur 4.7 km/h 8 km/h 92% 0.0 mm
08:19 6.3 °C 5.1 °C 1015.7 hPa Sur 4 km/h 6.4 km/h 92% 0.0 mm
08:24 6.3 °C 5.1 °C 1015.8 hPa SSO 3.9 km/h 5.8 km/h 92% 0.0 mm
08:29 6.3 °C 5.1 °C 1015.8 hPa SSO 3.3 km/h 7.6 km/h 92% 0.0 mm
08:34 6.4 °C 5.3 °C 1015.8 hPa Sur 3.2 km/h 7.6 km/h 92.3% 0.0 mm
08:39 6.5 °C 5.3 °C 1015.9 hPa Sur 4.6 km/h 9.5 km/h 92% 0.0 mm
08:44 6.6 °C 5.4 °C 1015.9 hPa SSE 4.7 km/h 10 km/h 92% 0.0 mm
08:49 6.6 °C 5.2 °C 1015.9 hPa SE 6.7 km/h 11.1 km/h 91.2% 0.0 mm
08:54 6.3 °C 4.9 °C 1016.2 hPa SE 6.9 km/h 14.8 km/h 90.4% 0.0 mm
08:59 6.2 °C 4.7 °C 1016.2 hPa SSE 8.5 km/h 14.8 km/h 90.4% 0.0 mm
09:04 6.2 °C 4.8 °C 1016.2 hPa Sur 8.7 km/h 14.5 km/h 91% 0.0 mm
09:09 6.3 °C 5 °C 1016.3 hPa SSO 8.7 km/h 12.9 km/h 91% 0.0 mm
09:14 6.5 °C 5.2 °C 1016.3 hPa Sur 8.7 km/h 12.2 km/h 91% 0.0 mm
09:19 6.8 °C 5.4 °C 1016.3 hPa SSE 8.4 km/h 13 km/h 91% 0.0 mm
09:24 7.2 °C 5.7 °C 1016.3 hPa SSE 8.4 km/h 13.7 km/h 90.6% 0.0 mm
09:29 7.3 °C 5.7 °C 1016.3 hPa Sur 8.6 km/h 14.5 km/h 89.3% 0.0 mm
09:34 7.6 °C 5.8 °C 1016.3 hPa Sur 8.7 km/h 13 km/h 88.6% 0.0 mm
09:39 7.8 °C 5.9 °C 1016.6 hPa SSO 8.4 km/h 13 km/h 88% 0.0 mm
09:44 8 °C 6.1 °C 1016.6 hPa SSO 8.4 km/h 13 km/h 87.5% 0.0 mm
09:49 8.3 °C 6.2 °C 1016.6 hPa SO 8.4 km/h 12.9 km/h 86.5% 0.0 mm
09:54 8.7 °C 6.4 °C 1016.6 hPa SO 8.4 km/h 13 km/h 85.4% 0.0 mm
09:59 9 °C 6.4 °C 1016.6 hPa OSO 7.7 km/h 13 km/h 83.6% 0.0 mm
10:04 9.3 °C 6.5 °C 1016.6 hPa SO 7.6 km/h 12.9 km/h 82.5% 0.0 mm
10:09 9.6 °C 6.6 °C 1016.9 hPa SSO 7 km/h 9.7 km/h 82% 0.0 mm
10:14 9.8 °C 6.7 °C 1016.9 hPa SSO 6.9 km/h 9.7 km/h 80.7% 0.0 mm
10:19 10.1 °C 6.5 °C 1016.9 hPa OSO 5.3 km/h 9.7 km/h 78.4% 0.0 mm
10:24 10.3 °C 6.6 °C 1016.9 hPa OSO 5 km/h 11.1 km/h 77.4% 0.0 mm
10:29 10.5 °C 6.6 °C 1016.9 hPa OSO 6.2 km/h 11.3 km/h 77% 0.0 mm
10:34 10.7 °C 6.7 °C 1016.9 hPa SO 6.5 km/h 8.4 km/h 76.5% 0.0 mm
10:39 10.9 °C 6.8 °C 1017.0 hPa SO 5.1 km/h 9.5 km/h 75.8% 0.0 mm
10:44 11.1 °C 6.7 °C 1017.0 hPa SO 5 km/h 9.7 km/h 74.4% 0.0 mm
10:49 11.3 °C 6.9 °C 1017.0 hPa SO 4.7 km/h 8 km/h 74.7% 0.0 mm
10:54 11.8 °C 7.3 °C 1017.0 hPa SSO 4.7 km/h 3.7 km/h 73.9% 0.0 mm
10:59 12.3 °C 7.2 °C 1016.9 hPa SSO 0.3 km/h 5 km/h 71.2% 0.0 mm
11:04 12.4 °C 7 °C 1016.9 hPa Calm   7.4 km/h 69.4% 0.0 mm
11:09 12.6 °C 7.1 °C 1017.0 hPa OSO 2.7 km/h 8 km/h 69% 0.0 mm
11:14 12.8 °C 7.4 °C 1017.0 hPa SO 2.9 km/h 8 km/h 69.6% 0.0 mm
11:19 13.1 °C 7.4 °C 1017.0 hPa Sur 2.3 km/h 7.6 km/h 68.1% 0.0 mm
11:24 13.4 °C 7.2 °C 1017.0 hPa SSO 2.2 km/h 9.5 km/h 66.3% 0.0 mm
11:29 13.4 °C 7.2 °C 1017.0 hPa Sur 4.8 km/h 9.7 km/h 66% 0.0 mm
11:34 13.6 °C 7.4 °C 1017.0 hPa Sur 5 km/h 8.4 km/h 66.1% 0.0 mm
11:39 13.9 °C 7.7 °C 1017.0 hPa SE 4.7 km/h 8 km/h 66% 0.0 mm
11:44 14.4 °C 7.8 °C 1017.0 hPa ESE 4.7 km/h 8 km/h 64.5% 0.0 mm
11:49 14.8 °C 7.8 °C 1017.0 hPa NE 3 km/h 7.4 km/h 63.1% 0.0 mm
11:54 15 °C 7.9 °C 1017.0 hPa North 2.9 km/h 8 km/h 62.7% 0.0 mm
11:59 15.4 °C 8 °C 1016.9 hPa NNE 2.3 km/h 4.7 km/h 61.7% 0.0 mm
12:04 15.9 °C 8 °C 1016.9 hPa ESE 2.2 km/h 5.8 km/h 59.6% 0.0 mm
12:09 16.2 °C 7.9 °C 1016.9 hPa SE 3.1 km/h 6.4 km/h 58% 0.0 mm
12:14 16.5 °C 8 °C 1016.5 hPa ESE 3.2 km/h 8 km/h 57.2% 0.0 mm
12:19 16.8 °C 8.2 °C 1016.5 hPa Este 2.9 km/h 8 km/h 57.2% 0.0 mm
12:24 17 °C 8.2 °C 1016.5 hPa Sur 2.9 km/h 5.8 km/h 56.2% 0.0 mm
12:29 17.1 °C 8.2 °C 1016.3 hPa SO 2.3 km/h 7.6 km/h 55.7% 0.0 mm
12:34 17 °C 8.1 °C 1016.3 hPa OSO 2.2 km/h 9.3 km/h 56% 0.0 mm
12:39 16.9 °C 8.2 °C 1016.3 hPa Oeste 3.6 km/h 9.7 km/h 56.6% 0.0 mm
12:44 16.9 °C 8.1 °C 1016.2 hPa OSO 3.9 km/h 8 km/h 56% 0.0 mm
12:49 16.9 °C 8.1 °C 1016.2 hPa SSO 3.9 km/h 11.9 km/h 56% 0.0 mm
12:54 17.1 °C 8.2 °C 1016.2 hPa OSO 3.9 km/h 11.3 km/h 56.1% 0.0 mm
12:59 17.2 °C 8.3 °C 1016.0 hPa OSO 4.9 km/h 10.3 km/h 55.9% 0.0 mm
13:04 17.2 °C 8.1 °C 1016.0 hPa OSO 5 km/h 11.9 km/h 55% 0.0 mm
13:09 17.3 °C 8.2 °C 1016.0 hPa OSO 5.7 km/h 11.3 km/h 55% 0.0 mm
13:14 17.5 °C 8.4 °C 1015.5 hPa SO 5.8 km/h 9.7 km/h 55% 0.0 mm
13:19 17.7 °C 8.2 °C 1015.5 hPa OSO 4.7 km/h 12.2 km/h 54% 0.0 mm
13:24 17.8 °C 8.4 °C 1015.5 hPa OSO 4.7 km/h 13 km/h 54% 0.0 mm
13:29 18 °C 8.5 °C 1015.3 hPa ONO 5.7 km/h 12.9 km/h 54% 0.0 mm
13:34 18.2 °C 8.7 °C 1015.3 hPa ONO 5.8 km/h 9.7 km/h 54% 0.0 mm
13:39 18.3 °C 8.5 °C 1015.3 hPa NNO 4.1 km/h 7.4 km/h 53% 0.0 mm
13:44 18.4 °C 8.4 °C 1015.0 hPa ONO 3.9 km/h 9.5 km/h 52% 0.0 mm
13:49 18.5 °C 8.5 °C 1015.0 hPa ONO 4.9 km/h 13.7 km/h 52% 0.0 mm
13:54 18.6 °C 8.4 °C 1015.0 hPa ONO 5 km/h 14.5 km/h 51.3% 0.0 mm
13:59 18.6 °C 8.6 °C 1015.0 hPa ONO 6.4 km/h 11.3 km/h 52% 0.0 mm
14:04 18.6 °C 8.5 °C 1015.0 hPa NO 6.5 km/h 11.9 km/h 51.7% 0.0 mm
14:09 18.7 °C 8.6 °C 1015.0 hPa NO 6.5 km/h 11.9 km/h 52% 0.0 mm
14:14 18.7 °C 8.6 °C 1014.8 hPa NO 6.5 km/h 15.6 km/h 51.9% 0.0 mm
14:19 18.8 °C 8.6 °C 1014.8 hPa ONO 6.5 km/h 16.1 km/h 51.6% 0.0 mm
14:24 18.8 °C 8.2 °C 1014.8 hPa NO 6.5 km/h 14.8 km/h 50.1% 0.0 mm
14:29 18.9 °C 8 °C 1014.6 hPa ONO 7.4 km/h 11.9 km/h 49.1% 0.0 mm
14:34 18.9 °C 8 °C 1014.6 hPa Oeste 7.6 km/h 11.3 km/h 49% 0.0 mm
14:39 19 °C 7.8 °C 1014.6 hPa OSO 6.5 km/h 13 km/h 48.2% 0.0 mm
14:44 19 °C 7.8 °C 1014.5 hPa Oeste 6.5 km/h 13 km/h 48.1% 0.0 mm
14:49 19.2 °C 7.9 °C 1014.5 hPa OSO 7.5 km/h 13.7 km/h 48% 0.0 mm
14:54 19.3 °C 7.6 °C 1014.5 hPa SO 7.6 km/h 20.4 km/h 46.4% 0.0 mm
14:59 19.6 °C 7.6 °C 1014.2 hPa OSO 8.6 km/h 20.9 km/h 45.8% 0.0 mm
15:04 19.8 °C 7.1 °C 1014.2 hPa OSO 8.7 km/h 27.8 km/h 43.9% 0.0 mm
15:09 20.1 °C 6.1 °C 1014.2 hPa SO 10.8 km/h 33.3 km/h 40.1% 0.0 mm
15:14 20.3 °C 5.3 °C 1014.0 hPa SO 11.1 km/h 38.9 km/h 37.6% 0.0 mm
15:19 20.3 °C 5.2 °C 1014.0 hPa SO 20.3 km/h 42.6 km/h 37.3% 0.0 mm
15:24 20.4 °C 5.4 °C 1014.0 hPa SO 20.9 km/h 41.8 km/h 37.4% 0.0 mm
15:29 20.4 °C 5.2 °C 1014.0 hPa OSO 22 km/h 38.9 km/h 37% 0.0 mm
15:34 20.3 °C 5.1 °C 1014.0 hPa SO 22 km/h 35.2 km/h 37% 0.0 mm
15:39 20.3 °C 5.3 °C 1014.2 hPa SO 22.5 km/h 37.8 km/h 37.4% 0.0 mm
15:44 20.3 °C 5.2 °C 1014.2 hPa OSO 22.5 km/h 46.8 km/h 37.2% 0.0 mm
15:49 20.2 °C 5.2 °C 1014.2 hPa OSO 22.1 km/h 46.7 km/h 37.7% 0.0 mm
15:54 20.1 °C 5.4 °C 1014.2 hPa SSO 22.1 km/h 33.8 km/h 38% 0.0 mm
15:59 20.1 °C 5.3 °C 1014.2 hPa SO 19.2 km/h 44.4 km/h 38% 0.0 mm
16:04 19.9 °C 5.2 °C 1014.2 hPa SO 19 km/h 45.1 km/h 38% 0.0 mm
16:09 19.9 °C 5.2 °C 1014.2 hPa SO 20 km/h 38.9 km/h 38% 0.0 mm
16:14 19.8 °C 5.1 °C 1014.1 hPa SO 20.1 km/h 38.6 km/h 38% 0.0 mm
16:19 19.8 °C 5.2 °C 1014.1 hPa SO 21.5 km/h 33.8 km/h 38.4% 0.0 mm
16:24 19.7 °C 5.3 °C 1014.4 hPa SO 21.7 km/h 33.8 km/h 39% 0.0 mm
16:29 19.7 °C 5.3 °C 1014.4 hPa SO 15.8 km/h 33.3 km/h 39% 0.0 mm
16:34 19.7 °C 5.3 °C 1014.4 hPa SO 14.8 km/h 33.8 km/h 39% 0.0 mm
16:39 19.7 °C 5.3 °C 1014.4 hPa SO 16.2 km/h 30.9 km/h 39% 0.0 mm
16:44 19.7 °C 5.3 °C 1014.2 hPa SO 16.4 km/h 38.9 km/h 39% 0.0 mm
16:49 19.5 °C 5.4 °C 1014.2 hPa SO 18.6 km/h 38.6 km/h 39.6% 0.0 mm
16:54 19.3 °C 5.4 °C 1014.2 hPa OSO 19 km/h 33.5 km/h 40% 0.0 mm
16:59 19.3 °C 5.3 °C 1014.0 hPa SO 14.3 km/h 33.8 km/h 40% 0.0 mm
17:04 19.2 °C 5.6 °C 1014.0 hPa SO 14 km/h 27.4 km/h 41% 0.0 mm
17:09 19.1 °C 5.6 °C 1014.3 hPa SO 13.7 km/h 27.8 km/h 41.1% 0.0 mm
17:14 19 °C 5.8 °C 1014.3 hPa SSO 13.7 km/h 27.4 km/h 42% 0.0 mm
17:19 18.8 °C 5.7 °C 1014.3 hPa SO 12.4 km/h 19.3 km/h 42% 0.0 mm
17:24 18.8 °C 5.9 °C 1014.5 hPa SO 12.2 km/h 19.3 km/h 42.9% 0.0 mm
17:29 18.7 °C 5.8 °C 1014.5 hPa SO 10.1 km/h 14.5 km/h 43% 0.0 mm
17:34 18.6 °C 5.8 °C 1014.5 hPa SO 10 km/h 14 km/h 43% 0.0 mm
17:39 18.7 °C 5.8 °C 1014.5 hPa SSO 7.9 km/h 14.8 km/h 43% 0.0 mm
17:44 18.7 °C 5.8 °C 1014.5 hPa Sur 7.6 km/h 8.7 km/h 43% 0.0 mm
17:49 18.6 °C 5.8 °C 1014.5 hPa SE 6.5 km/h 10 km/h 43% 0.0 mm
17:54 18.6 °C 5.8 °C 1014.5 hPa SSE 6.5 km/h 14.8 km/h 43% 0.0 mm
17:59 18.6 °C 5.8 °C 1014.4 hPa SE 8.1 km/h 14.5 km/h 43% 0.0 mm
18:04 18.5 °C 5.7 °C 1014.4 hPa SE 8.4 km/h 12.9 km/h 43% 0.0 mm
18:09 18.4 °C 5.6 °C 1014.5 hPa SE 7.1 km/h 13.7 km/h 43% 0.0 mm
18:14 18.3 °C 5.5 °C 1014.5 hPa SSE 6.9 km/h 16.4 km/h 43% 0.0 mm
18:19 18.3 °C 5.5 °C 1014.5 hPa SSE 8.6 km/h 18.5 km/h 43.1% 0.0 mm
18:24 18.3 °C 5.5 °C 1014.7 hPa SSE 8.7 km/h 19.3 km/h 43% 0.0 mm
18:29 18.2 °C 5.7 °C 1014.7 hPa SSE 9.5 km/h 19.3 km/h 43.9% 0.0 mm
18:34 17.9 °C 5.7 °C 1014.7 hPa SSE 9.5 km/h 14.5 km/h 44.5% 0.0 mm
18:39 17.8 °C 5.7 °C 1014.8 hPa Sur 7.7 km/h 11.1 km/h 45% 0.0 mm
18:44 17.7 °C 5.6 °C 1014.8 hPa Sur 7.6 km/h 11.3 km/h 45% 0.0 mm
18:49 17.7 °C 5.5 °C 1014.8 hPa Sur 5.9 km/h 13 km/h 44.6% 0.0 mm
18:54 17.7 °C 5.6 °C 1014.9 hPa Sur 5.8 km/h 12.9 km/h 45% 0.0 mm
18:59 17.7 °C 5.6 °C 1014.9 hPa Sur 5.8 km/h 8 km/h 45% 0.0 mm
19:04 17.6 °C 5.5 °C 1014.9 hPa Sur 5.8 km/h 8 km/h 45% 0.0 mm
19:09 17.5 °C 5.5 °C 1015.1 hPa Sur 3.9 km/h 6.4 km/h 45.1% 0.0 mm
19:14 17.4 °C 5.6 °C 1015.1 hPa SO 3.9 km/h 7.4 km/h 46% 0.0 mm
19:19 17.3 °C 5.5 °C 1015.1 hPa SO 3.9 km/h 8 km/h 46% 0.0 mm
19:24 17.2 °C 5.4 °C 1015.1 hPa SO 3.9 km/h 8 km/h 46% 0.0 mm
19:29 17.2 °C 5.6 °C 1015.1 hPa SO 3 km/h 5.8 km/h 46.5% 0.0 mm
19:34 17.2 °C 5.6 °C 1015.1 hPa SSO 2.9 km/h 7.6 km/h 46.4% 0.0 mm
19:39 17.2 °C 5.6 °C 1015.1 hPa Sur 3.7 km/h 8 km/h 46.6% 0.0 mm
19:44 17.2 °C 5.7 °C 1015.1 hPa Sur 3.9 km/h 8 km/h 47% 0.0 mm
19:49 17 °C 5.6 °C 1015.1 hPa Sur 3.9 km/h 7.4 km/h 47% 0.0 mm
19:54 16.9 °C 5.8 °C 1015.2 hPa Sur 3.9 km/h 8 km/h 47.9% 0.0 mm
19:59 16.7 °C 5.7 °C 1015.2 hPa Sur 4.8 km/h 10.3 km/h 48% 0.0 mm
20:04 16.8 °C 5.7 °C 1015.2 hPa SSO 5 km/h 16.1 km/h 48% 0.0 mm
20:09 17 °C 5.9 °C 1015.2 hPa Sur 8.2 km/h 20.9 km/h 48% 0.0 mm
20:14 17.1 °C 6 °C 1015.0 hPa Sur 8.7 km/h 20.9 km/h 48% 0.0 mm
20:19 17.1 °C 6 °C 1015.0 hPa Sur 10.1 km/h 16.1 km/h 48% 0.0 mm
20:24 17.1 °C 6 °C 1015.0 hPa SSO 10.3 km/h 16.7 km/h 48% 0.0 mm
20:29 17.1 °C 6 °C 1014.9 hPa SSO 8.8 km/h 16.1 km/h 48% 0.0 mm
20:34 17.1 °C 6 °C 1014.9 hPa SSO 8.7 km/h 13 km/h 48.2% 0.0 mm
20:39 16.9 °C 6.1 °C 1014.9 hPa Sur 8.4 km/h 12.9 km/h 49% 0.0 mm
20:44 16.8 °C 6 °C 1014.9 hPa SSO 8.4 km/h 11.3 km/h 49% 0.0 mm
20:49 16.7 °C 6.1 °C 1014.9 hPa SSO 6.1 km/h 10 km/h 49.6% 0.0 mm
20:54 16.8 °C 6.3 °C 1015.0 hPa SSO 5.8 km/h 9.7 km/h 50% 0.0 mm
20:59 16.7 °C 6.3 °C 1015.0 hPa Sur 6.4 km/h 9.7 km/h 50% 0.0 mm
21:04 16.7 °C 6.4 °C 1015.0 hPa SSO 6.5 km/h 11.9 km/h 50.5% 0.0 mm
21:09 16.7 °C 6.5 °C 1015.0 hPa SO 6.5 km/h 11.3 km/h 51% 0.0 mm
21:14 16.7 °C 6.5 °C 1015.0 hPa SO 6.5 km/h 9.7 km/h 51% 0.0 mm
21:19 16.7 °C 6.6 °C 1015.0 hPa SO 5.1 km/h 8 km/h 51.6% 0.0 mm
21:24 16.6 °C 6.7 °C 1015.0 hPa SO 5 km/h 9.3 km/h 52% 0.0 mm
21:29 16.6 °C 6.7 °C 1014.9 hPa SO 5 km/h 9.7 km/h 52% 0.0 mm
21:34 16.6 °C 6.9 °C 1014.9 hPa Sur 5 km/h 9.7 km/h 52.8% 0.0 mm
21:39 16.6 °C 7 °C 1015.0 hPa Sur 5 km/h 10 km/h 53% 0.0 mm
21:44 16.6 °C 7 °C 1015.0 hPa Sur 5 km/h 9.7 km/h 53% 0.0 mm
21:49 16.6 °C 7 °C 1015.0 hPa Sur 4.7 km/h 8 km/h 53% 0.0 mm
21:54 16.5 °C 6.9 °C 1015.0 hPa SO 4.7 km/h 13 km/h 53.3% 0.0 mm
21:59 16.4 °C 7.1 °C 1014.9 hPa SSO 4.7 km/h 13 km/h 54% 0.0 mm
22:04 16.3 °C 7.2 °C 1014.9 hPa SSO 4.7 km/h 11.3 km/h 54.8% 0.0 mm
22:09 16.3 °C 7.2 °C 1014.9 hPa SSO 5.7 km/h 9.7 km/h 55% 0.0 mm
22:14 16.3 °C 7.2 °C 1014.9 hPa OSO 5.8 km/h 9.7 km/h 55% 0.0 mm
22:19 16.2 °C 7.2 °C 1014.9 hPa OSO 5.8 km/h 11.1 km/h 55% 0.0 mm
22:24 16.2 °C 7.3 °C 1014.9 hPa SO 5.8 km/h 11.3 km/h 55.9% 0.0 mm
22:29 16.1 °C 7.3 °C 1014.8 hPa SO 5.1 km/h 13 km/h 56% 0.0 mm
22:34 16.2 °C 7.3 °C 1014.8 hPa SSO 5 km/h 16.1 km/h 55.6% 0.0 mm
22:39 16.3 °C 7.3 °C 1014.8 hPa SSO 8.2 km/h 16.7 km/h 55% 0.0 mm
22:44 16.6 °C 7.2 °C 1014.8 hPa SO 8.4 km/h 17.2 km/h 54.1% 0.0 mm
22:49 16.7 °C 7.3 °C 1014.8 hPa SO 8.7 km/h 15.6 km/h 54% 0.0 mm
22:54 16.7 °C 7.3 °C 1014.8 hPa SO 8.7 km/h 16.1 km/h 54% 0.0 mm
22:59 16.7 °C 7.4 °C 1014.5 hPa SSO 9.9 km/h 20.4 km/h 54% 0.0 mm
23:04 16.8 °C 7.4 °C 1014.5 hPa SSO 10 km/h 20.9 km/h 54% 0.0 mm
23:09 16.8 °C 7.4 °C 1014.5 hPa SSO 11.8 km/h 19.3 km/h 54% 0.0 mm
23:14 16.8 °C 7.5 °C 1014.4 hPa SSO 11.9 km/h 22.2 km/h 54% 0.0 mm
23:19 16.9 °C 7.5 °C 1014.4 hPa SSO 11.9 km/h 25.9 km/h 54% 0.0 mm
23:24 17.1 °C 7.7 °C 1014.6 hPa SSO 11.9 km/h 33.5 km/h 53.7% 0.0 mm
23:29 17.3 °C 7.6 °C 1014.6 hPa SSO 15.8 km/h 33.8 km/h 53% 0.0 mm
23:34 17.3 °C 7.6 °C 1014.6 hPa SSO 16.4 km/h 24.1 km/h 53% 0.0 mm
23:39 17.3 °C 7.6 °C 1014.6 hPa SSO 15.1 km/h 24.1 km/h 53% 0.0 mm
23:44 17.2 °C 7.6 °C 1014.6 hPa SSO 14.8 km/h 20.9 km/h 53% 0.0 mm
23:49 17.2 °C 7.8 °C 1014.6 hPa SSO 11.4 km/h 24.1 km/h 54% 0.0 mm
23:54 17.2 °C 7.8 °C 1014.6 hPa SSO 11.1 km/h 24.1 km/h 54% 0.0 mm
23:59 17.2 °C 7.8 °C 1014.1 hPa SSO 12.9 km/h 24.1 km/h 54% 0.0 mm
Murcia-Puente Tocinos, Espa?a
Compliments of Weather Underground - 3 mb

La estación de MeteoMurcia.com, publica sus datos en los siguientes proyectos:

Weather Underground PWS IMURCIAP2 Meteoclimatic www.awekas.at

W3Counter
Web Analytics